createdAt,value
2024-01-16T00:00:04.052Z,650.00
2024-01-16T00:01:04.186Z,651.00
2024-01-16T00:02:04.204Z,648.00
2024-01-16T00:03:04.201Z,651.00
2024-01-16T00:04:04.287Z,651.00
2024-01-16T00:05:04.395Z,652.00
2024-01-16T00:06:04.327Z,649.00
2024-01-16T00:07:04.488Z,645.00
2024-01-16T00:08:04.432Z,651.00
2024-01-16T00:09:04.482Z,648.00
2024-01-16T00:10:04.519Z,651.00
2024-01-16T00:11:04.712Z,649.00
2024-01-16T00:12:04.579Z,647.00
2024-01-16T00:13:04.624Z,647.00
2024-01-16T00:14:04.712Z,649.00
2024-01-16T00:15:04.706Z,644.00
2024-01-16T00:16:04.709Z,648.00
2024-01-16T00:17:04.771Z,647.00
2024-01-16T00:18:04.900Z,644.00
2024-01-16T00:19:04.937Z,648.00
2024-01-16T00:20:04.866Z,646.00
2024-01-16T00:21:04.887Z,648.00
2024-01-16T00:22:04.933Z,647.00
2024-01-16T00:23:04.982Z,647.00
2024-01-16T00:24:05.030Z,646.00
2024-01-16T00:25:05.889Z,647.00
2024-01-16T00:26:05.161Z,645.00
2024-01-16T00:27:07.421Z,644.00
2024-01-16T00:28:05.137Z,648.00
2024-01-16T00:29:05.197Z,644.00
2024-01-16T00:30:05.161Z,643.00
2024-01-16T00:31:05.152Z,644.00
2024-01-16T00:32:05.201Z,645.00
2024-01-16T00:33:05.308Z,646.00
2024-01-16T00:34:05.241Z,642.00
2024-01-16T00:35:05.206Z,644.00
2024-01-16T00:36:05.160Z,642.00
2024-01-16T00:37:05.159Z,640.00
2024-01-16T00:38:05.176Z,642.00
2024-01-16T00:39:05.714Z,641.00
2024-01-16T00:40:05.170Z,642.00
2024-01-16T00:41:05.223Z,638.00
2024-01-16T00:42:05.168Z,641.00
2024-01-16T00:43:05.187Z,641.00
2024-01-16T00:44:05.214Z,641.00
2024-01-16T00:45:05.186Z,640.00
2024-01-16T00:46:05.189Z,639.00
2024-01-16T00:47:05.223Z,641.00
2024-01-16T00:48:05.336Z,640.00
2024-01-16T00:49:05.282Z,640.00
2024-01-16T00:50:05.246Z,638.00
2024-01-16T00:51:05.189Z,640.00
2024-01-16T00:52:05.211Z,635.00
2024-01-16T00:53:05.216Z,639.00
2024-01-16T00:54:05.198Z,636.00
2024-01-16T00:55:05.197Z,638.00
2024-01-16T00:56:05.237Z,635.00
2024-01-16T00:57:05.197Z,636.00
2024-01-16T00:58:05.209Z,637.00
2024-01-16T00:59:05.223Z,637.00
2024-01-16T01:00:05.222Z,635.00
2024-01-16T01:01:05.259Z,637.00
2024-01-16T01:02:05.282Z,634.00
2024-01-16T01:03:05.210Z,632.00
2024-01-16T01:04:05.288Z,636.00
2024-01-16T01:05:05.277Z,637.00
2024-01-16T01:06:05.297Z,633.00
2024-01-16T01:07:05.228Z,635.00
2024-01-16T01:08:05.263Z,636.00
2024-01-16T01:09:05.221Z,635.00
2024-01-16T01:10:05.250Z,634.00
2024-01-16T01:11:05.258Z,636.00
2024-01-16T01:12:05.248Z,633.00
2024-01-16T01:13:05.238Z,631.00
2024-01-16T01:14:05.366Z,632.00
2024-01-16T01:15:05.324Z,633.00
2024-01-16T01:16:05.248Z,630.00
2024-01-16T01:17:05.305Z,635.00
2024-01-16T01:18:05.735Z,630.00
2024-01-16T01:19:05.358Z,630.00
2024-01-16T01:20:05.309Z,631.00
2024-01-16T01:21:05.276Z,629.00
2024-01-16T01:22:05.313Z,630.00
2024-01-16T01:23:05.416Z,632.00
2024-01-16T01:24:05.379Z,627.00
2024-01-16T01:25:05.367Z,629.00
2024-01-16T01:26:05.434Z,630.00
2024-01-16T01:27:05.421Z,627.00
2024-01-16T01:28:05.435Z,630.00
2024-01-16T01:29:05.507Z,632.00
2024-01-16T01:30:05.575Z,627.00
2024-01-16T01:31:05.589Z,626.00
2024-01-16T01:32:05.606Z,629.00
2024-01-16T01:33:05.707Z,625.00
2024-01-16T01:34:05.744Z,630.00
2024-01-16T01:35:05.731Z,627.00
2024-01-16T01:36:09.464Z,628.00
2024-01-16T01:37:05.728Z,632.00
2024-01-16T01:38:05.770Z,628.00
2024-01-16T01:39:05.743Z,625.00
2024-01-16T01:40:05.750Z,627.00
2024-01-16T01:41:08.568Z,627.00
2024-01-16T01:42:05.722Z,627.00
2024-01-16T01:43:05.737Z,627.00
2024-01-16T01:44:05.793Z,624.00
2024-01-16T01:45:05.750Z,626.00
2024-01-16T01:46:05.746Z,627.00
2024-01-16T01:47:05.805Z,625.00
2024-01-16T01:48:05.873Z,627.00
2024-01-16T01:49:05.810Z,626.00
2024-01-16T01:50:05.777Z,626.00
2024-01-16T01:51:05.761Z,626.00
2024-01-16T01:52:05.757Z,626.00
2024-01-16T01:53:05.772Z,621.00
2024-01-16T01:54:05.793Z,624.00
2024-01-16T01:55:05.757Z,621.00
2024-01-16T01:56:05.792Z,623.00
2024-01-16T01:57:05.758Z,625.00
2024-01-16T01:58:05.775Z,625.00
2024-01-16T01:59:05.777Z,619.00
2024-01-16T02:00:05.770Z,622.00
2024-01-16T02:01:05.813Z,621.00
2024-01-16T02:02:05.816Z,622.00
2024-01-16T02:03:05.779Z,621.00
2024-01-16T02:04:05.775Z,621.00
2024-01-16T02:05:05.852Z,623.00
2024-01-16T02:06:05.927Z,619.00
2024-01-16T02:07:05.768Z,620.00
2024-01-16T02:08:05.789Z,619.00
2024-01-16T02:09:05.791Z,620.00
2024-01-16T02:10:06.448Z,617.00
2024-01-16T02:11:05.791Z,616.00
2024-01-16T02:12:05.784Z,617.00
2024-01-16T02:13:05.775Z,619.00
2024-01-16T02:14:05.807Z,620.00
2024-01-16T02:15:05.809Z,619.00
2024-01-16T02:16:05.784Z,620.00
2024-01-16T02:17:05.836Z,619.00
2024-01-16T02:18:05.906Z,619.00
2024-01-16T02:19:11.844Z,617.00
2024-01-16T02:20:05.853Z,617.00
2024-01-16T02:21:05.793Z,617.00
2024-01-16T02:22:05.819Z,617.00
2024-01-16T02:23:05.866Z,619.00
2024-01-16T02:24:05.788Z,619.00
2024-01-16T02:25:05.790Z,618.00
2024-01-16T02:26:05.838Z,615.00
2024-01-16T02:27:05.808Z,618.00
2024-01-16T02:28:05.790Z,618.00
2024-01-16T02:29:05.857Z,620.00
2024-01-16T02:30:05.818Z,620.00
2024-01-16T02:31:05.831Z,617.00
2024-01-16T02:32:05.857Z,618.00
2024-01-16T02:33:05.952Z,619.00
2024-01-16T02:34:05.977Z,619.00
2024-01-16T02:35:05.860Z,620.00
2024-01-16T02:36:05.804Z,619.00
2024-01-16T02:37:05.807Z,621.00
2024-01-16T02:38:05.824Z,618.00
2024-01-16T02:39:05.815Z,618.00
2024-01-16T02:40:05.832Z,619.00
2024-01-16T02:41:05.865Z,615.00
2024-01-16T02:42:05.822Z,616.00
2024-01-16T02:43:05.821Z,617.00
2024-01-16T02:44:05.841Z,619.00
2024-01-16T02:45:05.822Z,620.00
2024-01-16T02:46:05.841Z,616.00
2024-01-16T02:47:05.890Z,621.00
2024-01-16T02:48:05.918Z,620.00
2024-01-16T02:49:05.845Z,618.00
2024-01-16T02:50:05.958Z,620.00
2024-01-16T02:51:05.843Z,620.00
2024-01-16T02:52:05.850Z,616.00
2024-01-16T02:53:05.908Z,616.00
2024-01-16T02:54:05.876Z,615.00
2024-01-16T02:55:05.844Z,619.00
2024-01-16T02:56:05.916Z,617.00
2024-01-16T02:57:05.915Z,613.00
2024-01-16T02:58:05.857Z,618.00
2024-01-16T02:59:11.906Z,619.00
2024-01-16T03:00:05.891Z,619.00
2024-01-16T03:01:05.931Z,620.00
2024-01-16T03:02:05.908Z,620.00
2024-01-16T03:03:05.918Z,619.00
2024-01-16T03:04:05.871Z,617.00
2024-01-16T03:05:05.948Z,619.00
2024-01-16T03:06:06.006Z,620.00
2024-01-16T03:07:05.901Z,618.00
2024-01-16T03:08:05.912Z,616.00
2024-01-16T03:09:05.882Z,622.00
2024-01-16T03:10:05.885Z,618.00
2024-01-16T03:11:05.920Z,616.00
2024-01-16T03:12:05.897Z,616.00
2024-01-16T03:13:05.881Z,618.00
2024-01-16T03:14:05.931Z,615.00
2024-01-16T03:15:05.895Z,618.00
2024-01-16T03:16:05.914Z,615.00
2024-01-16T03:17:05.932Z,616.00
2024-01-16T03:18:05.974Z,617.00
2024-01-16T03:19:05.912Z,616.00
2024-01-16T03:20:05.920Z,617.00
2024-01-16T03:21:05.903Z,614.00
2024-01-16T03:22:05.909Z,615.00
2024-01-16T03:23:05.933Z,615.00
2024-01-16T03:24:05.915Z,618.00
2024-01-16T03:25:05.936Z,610.00
2024-01-16T03:26:05.968Z,612.00
2024-01-16T03:27:05.909Z,615.00
2024-01-16T03:28:05.922Z,610.00
2024-01-16T03:29:05.936Z,612.00
2024-01-16T03:30:05.983Z,611.00
2024-01-16T03:31:05.977Z,612.00
2024-01-16T03:32:05.926Z,610.00
2024-01-16T03:33:05.971Z,613.00
2024-01-16T03:34:05.999Z,607.00
2024-01-16T03:35:05.969Z,610.00
2024-01-16T03:36:05.925Z,612.00
2024-01-16T03:37:05.924Z,612.00
2024-01-16T03:38:05.954Z,607.00
2024-01-16T03:39:05.922Z,609.00
2024-01-16T03:40:05.933Z,609.00
2024-01-16T03:41:05.978Z,611.00
2024-01-16T03:42:05.937Z,609.00
2024-01-16T03:43:05.962Z,611.00
2024-01-16T03:44:05.941Z,608.00
2024-01-16T03:45:05.934Z,609.00
2024-01-16T03:46:05.930Z,607.00
2024-01-16T03:47:05.944Z,609.00
2024-01-16T03:48:06.376Z,607.00
2024-01-16T03:49:06.007Z,609.00
2024-01-16T03:50:05.970Z,606.00
2024-01-16T03:51:05.948Z,608.00
2024-01-16T03:52:05.957Z,606.00
2024-01-16T03:53:06.042Z,605.00
2024-01-16T03:54:05.993Z,607.00
2024-01-16T03:55:05.943Z,604.00
2024-01-16T03:56:05.973Z,605.00
2024-01-16T03:57:05.948Z,605.00
2024-01-16T03:58:05.971Z,607.00
2024-01-16T03:59:05.983Z,605.00
2024-01-16T04:00:05.989Z,603.00
2024-01-16T04:01:05.983Z,602.00
2024-01-16T04:02:06.058Z,604.00
2024-01-16T04:03:05.977Z,601.00
2024-01-16T04:04:06.000Z,604.00
2024-01-16T04:05:06.038Z,604.00
2024-01-16T04:06:06.115Z,603.00
2024-01-16T04:07:06.014Z,605.00
2024-01-16T04:08:06.004Z,605.00
2024-01-16T04:09:05.957Z,603.00
2024-01-16T04:10:05.969Z,603.00
2024-01-16T04:11:06.001Z,603.00
2024-01-16T04:12:05.977Z,603.00
2024-01-16T04:13:05.970Z,603.00
2024-01-16T04:14:06.037Z,604.00
2024-01-16T04:15:05.985Z,601.00
2024-01-16T04:16:05.974Z,607.00
2024-01-16T04:17:06.039Z,604.00
2024-01-16T04:18:06.077Z,605.00
2024-01-16T04:19:06.117Z,605.00
2024-01-16T04:20:06.158Z,602.00
2024-01-16T04:21:06.156Z,604.00
2024-01-16T04:22:06.253Z,606.00
2024-01-16T04:23:06.225Z,605.00
2024-01-16T04:24:06.228Z,603.00
2024-01-16T04:25:06.243Z,605.00
2024-01-16T04:26:06.361Z,603.00
2024-01-16T04:27:06.407Z,603.00
2024-01-16T04:28:06.370Z,601.00
2024-01-16T04:29:06.514Z,602.00
2024-01-16T04:30:06.503Z,605.00
2024-01-16T04:31:06.531Z,603.00
2024-01-16T04:32:06.684Z,600.00
2024-01-16T04:33:06.702Z,603.00
2024-01-16T04:34:06.713Z,606.00
2024-01-16T04:35:06.743Z,602.00
2024-01-16T04:36:06.702Z,608.00
2024-01-16T04:37:06.766Z,606.00
2024-01-16T04:38:06.820Z,602.00
2024-01-16T04:39:06.835Z,605.00
2024-01-16T04:40:06.882Z,609.00
2024-01-16T04:41:06.943Z,604.00
2024-01-16T04:42:06.964Z,606.00
2024-01-16T04:43:07.022Z,606.00
2024-01-16T04:44:07.065Z,605.00
2024-01-16T04:45:07.104Z,609.00
2024-01-16T04:46:07.146Z,607.00
2024-01-16T04:47:07.218Z,603.00
2024-01-16T04:48:07.401Z,608.00
2024-01-16T04:49:07.295Z,609.00
2024-01-16T04:50:14.629Z,600.00
2024-01-16T04:51:14.581Z,600.00
2024-01-16T04:52:14.591Z,600.00
2024-01-16T04:53:14.613Z,600.00
2024-01-16T04:54:14.580Z,600.00
2024-01-16T04:55:14.605Z,603.00
2024-01-16T04:56:14.656Z,603.00
2024-01-16T04:57:14.595Z,602.00
2024-01-16T04:58:14.592Z,601.00
2024-01-16T04:59:16.839Z,603.00
2024-01-16T05:00:14.665Z,602.00
2024-01-16T05:01:14.714Z,602.00
2024-01-16T05:02:14.754Z,604.00
2024-01-16T05:03:14.854Z,600.00
2024-01-16T05:04:14.894Z,600.00
2024-01-16T05:05:14.947Z,605.00
2024-01-16T05:06:14.955Z,603.00
2024-01-16T05:07:14.950Z,603.00
2024-01-16T05:08:15.096Z,604.00
2024-01-16T05:09:15.044Z,605.00
2024-01-16T05:10:15.097Z,603.00
2024-01-16T05:11:15.169Z,602.00
2024-01-16T05:12:15.180Z,602.00
2024-01-16T05:13:15.222Z,605.00
2024-01-16T05:14:15.298Z,600.00
2024-01-16T05:15:15.333Z,603.00
2024-01-16T05:16:15.392Z,603.00
2024-01-16T05:17:15.435Z,603.00
2024-01-16T05:18:15.546Z,604.00
2024-01-16T05:19:15.553Z,605.00
2024-01-16T05:20:15.595Z,604.00
2024-01-16T05:21:15.618Z,602.00
2024-01-16T05:22:15.666Z,600.00
2024-01-16T05:23:15.776Z,600.00
2024-01-16T05:24:17.001Z,605.00
2024-01-16T05:25:15.781Z,607.00
2024-01-16T05:26:15.816Z,603.00
2024-01-16T05:27:15.837Z,600.00
2024-01-16T05:28:15.864Z,604.00
2024-01-16T05:29:15.958Z,602.00
2024-01-16T05:30:16.033Z,604.00
2024-01-16T05:31:15.987Z,604.00
2024-01-16T05:32:16.046Z,605.00
2024-01-16T05:33:16.231Z,605.00
2024-01-16T05:34:16.171Z,604.00
2024-01-16T05:35:16.216Z,605.00
2024-01-16T05:36:16.182Z,606.00
2024-01-16T05:37:16.205Z,606.00
2024-01-16T05:38:16.338Z,604.00
2024-01-16T05:39:16.293Z,606.00
2024-01-16T05:40:16.364Z,601.00
2024-01-16T05:41:16.452Z,605.00
2024-01-16T05:42:16.486Z,606.00
2024-01-16T05:43:16.524Z,603.00
2024-01-16T05:44:16.618Z,603.00
2024-01-16T05:45:16.608Z,602.00
2024-01-16T05:46:16.683Z,601.00
2024-01-16T05:47:16.736Z,604.00
2024-01-16T05:48:16.911Z,603.00
2024-01-16T05:49:16.849Z,604.00
2024-01-16T05:50:16.957Z,600.00
2024-01-16T05:51:16.977Z,606.00
2024-01-16T05:52:16.987Z,601.00
2024-01-16T05:53:17.050Z,605.00
2024-01-16T05:54:17.132Z,603.00
2024-01-16T05:55:17.156Z,603.00
2024-01-16T05:56:17.235Z,604.00
2024-01-16T05:57:17.254Z,605.00
2024-01-16T05:58:17.294Z,604.00
2024-01-16T05:59:17.370Z,602.00
2024-01-16T06:00:17.416Z,604.00
2024-01-16T06:01:17.480Z,601.00
2024-01-16T06:02:17.574Z,603.00
2024-01-16T06:03:17.583Z,601.00
2024-01-16T06:04:17.655Z,604.00
2024-01-16T06:05:17.686Z,603.00
2024-01-16T06:06:17.875Z,605.00
2024-01-16T06:07:17.691Z,606.00
2024-01-16T06:08:17.821Z,607.00
2024-01-16T06:09:17.823Z,605.00
2024-01-16T06:10:17.857Z,610.00
2024-01-16T06:11:17.916Z,606.00
2024-01-16T06:12:17.945Z,604.00
2024-01-16T06:13:17.982Z,610.00
2024-01-16T06:14:19.997Z,606.00
2024-01-16T06:15:18.039Z,608.00
2024-01-16T06:16:18.035Z,604.00
2024-01-16T06:17:18.109Z,606.00
2024-01-16T06:18:18.133Z,606.00
2024-01-16T06:19:18.122Z,606.00
2024-01-16T06:20:18.105Z,606.00
2024-01-16T06:21:18.670Z,605.00
2024-01-16T06:22:18.050Z,606.00
2024-01-16T06:23:18.061Z,608.00
2024-01-16T06:24:18.047Z,605.00
2024-01-16T06:25:18.055Z,607.00
2024-01-16T06:26:18.120Z,606.00
2024-01-16T06:27:18.059Z,605.00
2024-01-16T06:28:18.057Z,606.00
2024-01-16T06:29:24.942Z,604.00
2024-01-16T06:30:19.237Z,604.00
2024-01-16T06:31:18.111Z,604.00
2024-01-16T06:32:18.174Z,605.00
2024-01-16T06:33:18.234Z,605.00
2024-01-16T06:34:18.188Z,603.00
2024-01-16T06:35:18.124Z,608.00
2024-01-16T06:36:18.098Z,607.00
2024-01-16T06:37:18.121Z,604.00
2024-01-16T06:38:18.125Z,605.00
2024-01-16T06:39:18.141Z,606.00
2024-01-16T06:40:18.133Z,606.00
2024-01-16T06:41:18.226Z,606.00
2024-01-16T06:42:18.245Z,607.00
2024-01-16T06:43:18.347Z,604.00
2024-01-16T06:44:18.387Z,606.00
2024-01-16T06:45:18.415Z,607.00
2024-01-16T06:46:18.479Z,605.00
2024-01-16T06:47:18.557Z,607.00
2024-01-16T06:48:18.765Z,604.00
2024-01-16T06:49:18.680Z,606.00
2024-01-16T06:50:18.652Z,604.00
2024-01-16T06:51:18.657Z,607.00
2024-01-16T06:52:18.708Z,607.00
2024-01-16T06:53:18.764Z,606.00
2024-01-16T06:54:18.837Z,606.00
2024-01-16T06:55:18.896Z,607.00
2024-01-16T06:56:18.925Z,605.00
2024-01-16T06:57:19.034Z,604.00
2024-01-16T06:58:19.044Z,604.00
2024-01-16T06:59:19.113Z,608.00
2024-01-16T07:00:19.149Z,603.00
2024-01-16T07:01:19.272Z,607.00
2024-01-16T07:02:19.313Z,603.00
2024-01-16T07:03:19.346Z,602.00
2024-01-16T07:04:19.484Z,606.00
2024-01-16T07:05:19.511Z,605.00
2024-01-16T07:06:19.598Z,607.00
2024-01-16T07:07:19.596Z,605.00
2024-01-16T07:08:19.627Z,605.00
2024-01-16T07:09:19.660Z,604.00
2024-01-16T07:10:19.926Z,605.00
2024-01-16T07:11:20.224Z,603.00
2024-01-16T07:12:19.866Z,606.00
2024-01-16T07:13:19.933Z,602.00
2024-01-16T07:14:20.086Z,601.00
2024-01-16T07:15:20.063Z,604.00
2024-01-16T07:16:20.118Z,602.00
2024-01-16T07:17:20.154Z,602.00
2024-01-16T07:18:20.287Z,604.00
2024-01-16T07:19:20.216Z,603.00
2024-01-16T07:20:20.308Z,603.00
2024-01-16T07:21:20.324Z,606.00
2024-01-16T07:22:20.356Z,607.00
2024-01-16T07:23:20.416Z,608.00
2024-01-16T07:24:20.480Z,605.00
2024-01-16T07:25:20.520Z,607.00
2024-01-16T07:26:20.615Z,603.00
2024-01-16T07:27:20.616Z,607.00
2024-01-16T07:28:20.679Z,607.00
2024-01-16T07:29:20.768Z,606.00
2024-01-16T07:30:20.846Z,604.00
2024-01-16T07:31:20.864Z,604.00
2024-01-16T07:32:20.934Z,606.00
2024-01-16T07:33:21.099Z,604.00
2024-01-16T07:34:21.227Z,604.00
2024-01-16T07:35:21.151Z,603.00
2024-01-16T07:36:21.148Z,604.00
2024-01-16T07:37:21.200Z,605.00
2024-01-16T07:38:21.347Z,603.00
2024-01-16T07:39:21.333Z,605.00
2024-01-16T07:40:21.389Z,604.00
2024-01-16T07:41:21.461Z,602.00
2024-01-16T07:42:21.522Z,602.00
2024-01-16T07:43:21.579Z,604.00
2024-01-16T07:44:21.647Z,604.00
2024-01-16T07:45:21.680Z,606.00
2024-01-16T07:46:21.737Z,602.00
2024-01-16T07:47:21.806Z,605.00
2024-01-16T07:48:21.975Z,602.00
2024-01-16T07:49:21.956Z,602.00
2024-01-16T07:50:22.012Z,606.00
2024-01-16T07:51:22.005Z,604.00
2024-01-16T07:52:22.044Z,606.00
2024-01-16T07:53:22.105Z,606.00
2024-01-16T07:54:22.139Z,608.00
2024-01-16T07:55:25.148Z,601.00
2024-01-16T07:56:22.294Z,604.00
2024-01-16T07:57:22.189Z,605.00
2024-01-16T07:58:22.205Z,605.00
2024-01-16T07:59:22.425Z,604.00
2024-01-16T08:00:22.345Z,603.00
2024-01-16T08:01:22.420Z,601.00
2024-01-16T08:02:24.822Z,601.00
2024-01-16T08:03:22.322Z,601.00
2024-01-16T08:04:22.261Z,601.00
2024-01-16T08:05:22.328Z,603.00
2024-01-16T08:06:22.308Z,603.00
2024-01-16T08:07:22.209Z,607.00
2024-01-16T08:08:22.244Z,608.00
2024-01-16T08:09:22.274Z,610.00
2024-01-16T08:10:22.245Z,609.00
2024-01-16T08:11:22.242Z,612.00
2024-01-16T08:12:22.250Z,609.00
2024-01-16T08:13:22.228Z,612.00
2024-01-16T08:14:22.245Z,612.00
2024-01-16T08:15:22.243Z,610.00
2024-01-16T08:16:22.249Z,610.00
2024-01-16T08:17:22.270Z,608.00
2024-01-16T08:18:22.406Z,614.00
2024-01-16T08:19:22.352Z,612.00
2024-01-16T08:20:22.296Z,611.00
2024-01-16T08:21:22.273Z,611.00
2024-01-16T08:22:22.267Z,611.00
2024-01-16T08:23:22.397Z,617.00
2024-01-16T08:24:22.269Z,609.00
2024-01-16T08:25:22.271Z,611.00
2024-01-16T08:26:22.284Z,613.00
2024-01-16T08:27:22.261Z,612.00
2024-01-16T08:28:23.802Z,613.00
2024-01-16T08:29:22.255Z,614.00
2024-01-16T08:30:22.357Z,616.00
2024-01-16T08:31:22.287Z,616.00
2024-01-16T08:32:22.365Z,616.00
2024-01-16T08:33:30.954Z,615.00
2024-01-16T08:34:23.466Z,615.00
2024-01-16T08:35:22.535Z,615.00
2024-01-16T08:36:22.320Z,615.00
2024-01-16T08:37:22.276Z,618.00
2024-01-16T08:38:22.318Z,617.00
2024-01-16T08:39:22.279Z,618.00
2024-01-16T08:40:22.286Z,615.00
2024-01-16T08:41:22.298Z,618.00
2024-01-16T08:42:22.297Z,614.00
2024-01-16T08:43:22.331Z,618.00
2024-01-16T08:44:22.390Z,617.00
2024-01-16T08:45:22.393Z,621.00
2024-01-16T08:46:22.290Z,615.00
2024-01-16T08:47:22.355Z,618.00
2024-01-16T08:48:22.530Z,617.00
2024-01-16T08:49:22.351Z,621.00
2024-01-16T08:50:22.350Z,626.00
2024-01-16T08:51:22.311Z,632.00
2024-01-16T08:52:22.410Z,636.00
2024-01-16T08:53:22.459Z,635.00
2024-01-16T08:54:22.460Z,639.00
2024-01-16T08:55:22.512Z,644.00
2024-01-16T08:56:22.675Z,647.00
2024-01-16T08:57:24.777Z,650.00
2024-01-16T08:58:22.593Z,654.00
2024-01-16T08:59:22.636Z,664.00
2024-01-16T09:00:22.594Z,665.00
2024-01-16T09:01:22.640Z,686.00
2024-01-16T09:02:22.638Z,704.00
2024-01-16T09:03:22.606Z,711.00
2024-01-16T09:04:22.750Z,721.00
2024-01-16T09:05:22.641Z,731.00
2024-01-16T09:06:22.732Z,748.00
2024-01-16T09:07:22.788Z,749.00
2024-01-16T09:08:22.622Z,761.00
2024-01-16T09:09:22.606Z,772.00
2024-01-16T09:10:22.623Z,778.00
2024-01-16T09:11:22.639Z,789.00
2024-01-16T09:12:22.608Z,797.00
2024-01-16T09:13:22.606Z,803.00
2024-01-16T09:14:22.656Z,804.00
2024-01-16T09:15:22.610Z,820.00
2024-01-16T09:16:22.615Z,833.00
2024-01-16T09:17:22.617Z,834.00
2024-01-16T09:18:22.870Z,845.00
2024-01-16T09:19:22.845Z,852.00
2024-01-16T09:20:22.653Z,861.00
2024-01-16T09:21:22.633Z,857.00
2024-01-16T09:22:22.624Z,864.00
2024-01-16T09:23:22.637Z,870.00
2024-01-16T09:24:22.647Z,879.00
2024-01-16T09:25:22.607Z,883.00
2024-01-16T09:26:22.672Z,873.00
2024-01-16T09:27:22.626Z,885.00
2024-01-16T09:28:22.643Z,901.00
2024-01-16T09:29:22.648Z,894.00
2024-01-16T09:30:22.627Z,906.00
2024-01-16T09:31:22.654Z,908.00
2024-01-16T09:32:22.697Z,913.00
2024-01-16T09:33:22.743Z,915.00
2024-01-16T09:34:22.678Z,912.00
2024-01-16T09:35:22.637Z,922.00
2024-01-16T09:36:22.651Z,925.00
2024-01-16T09:37:22.620Z,929.00
2024-01-16T09:38:23.657Z,925.00
2024-01-16T09:39:22.635Z,921.00
2024-01-16T09:40:22.650Z,932.00
2024-01-16T09:41:22.690Z,936.00
2024-01-16T09:42:22.645Z,941.00
2024-01-16T09:43:22.698Z,939.00
2024-01-16T09:44:22.754Z,948.00
2024-01-16T09:45:22.831Z,949.00
2024-01-16T09:46:22.891Z,956.00
2024-01-16T09:47:22.971Z,961.00
2024-01-16T09:48:23.050Z,964.00
2024-01-16T09:49:23.116Z,964.00
2024-01-16T09:50:23.147Z,969.00
2024-01-16T09:51:23.168Z,972.00
2024-01-16T09:52:23.214Z,970.00
2024-01-16T09:53:23.294Z,974.00
2024-01-16T09:54:23.275Z,979.00
2024-01-16T09:55:23.305Z,978.00
2024-01-16T09:56:23.401Z,990.00
2024-01-16T09:57:23.423Z,994.00
2024-01-16T09:58:25.931Z,990.00
2024-01-16T09:59:23.542Z,992.00
2024-01-16T10:00:23.449Z,996.00
2024-01-16T10:01:23.466Z,996.00
2024-01-16T10:02:23.512Z,1003.00
2024-01-16T10:03:23.460Z,1007.00
2024-01-16T10:04:23.502Z,1015.00
2024-01-16T10:05:23.547Z,1016.00
2024-01-16T10:06:23.538Z,1019.00
2024-01-16T10:07:23.682Z,1022.00
2024-01-16T10:08:23.529Z,1025.00
2024-01-16T10:09:23.466Z,1022.00
2024-01-16T10:10:30.545Z,1017.00
2024-01-16T10:11:24.505Z,1017.00
2024-01-16T10:12:23.519Z,1020.00
2024-01-16T10:13:23.507Z,1023.00
2024-01-16T10:14:23.550Z,1027.00
2024-01-16T10:15:23.544Z,1039.00
2024-01-16T10:16:26.010Z,1034.00
2024-01-16T10:17:23.542Z,1041.00
2024-01-16T10:18:23.722Z,1034.00
2024-01-16T10:19:32.035Z,1036.00
2024-01-16T10:20:24.528Z,1036.00
2024-01-16T10:21:23.653Z,1038.00
2024-01-16T10:22:25.719Z,1041.00
2024-01-16T10:23:23.503Z,1046.00
2024-01-16T10:24:23.498Z,1054.00
2024-01-16T10:25:23.517Z,1068.00
2024-01-16T10:26:23.566Z,1063.00
2024-01-16T10:27:23.503Z,1067.00
2024-01-16T10:28:25.672Z,1070.00
2024-01-16T10:29:25.736Z,1070.00
2024-01-16T10:30:24.740Z,1070.00
2024-01-16T10:31:23.638Z,1070.00
2024-01-16T10:32:23.593Z,1065.00
2024-01-16T10:33:23.584Z,1060.00
2024-01-16T10:34:23.863Z,1067.00
2024-01-16T10:35:23.649Z,1068.00
2024-01-16T10:36:23.524Z,1070.00
2024-01-16T10:37:23.523Z,1073.00
2024-01-16T10:38:23.732Z,1073.00
2024-01-16T10:39:27.438Z,1076.00
2024-01-16T10:40:26.671Z,1077.00
2024-01-16T10:41:23.576Z,1077.00
2024-01-16T10:42:23.535Z,1080.00
2024-01-16T10:43:23.540Z,1085.00
2024-01-16T10:44:23.550Z,1090.00
2024-01-16T10:45:23.561Z,1104.00
2024-01-16T10:46:24.629Z,1105.00
2024-01-16T10:47:23.614Z,1115.00
2024-01-16T10:48:23.645Z,1117.00
2024-01-16T10:49:25.085Z,1111.00
2024-01-16T10:50:23.577Z,1111.00
2024-01-16T10:51:23.587Z,1111.00
2024-01-16T10:52:24.328Z,1108.00
2024-01-16T10:53:23.645Z,1109.00
2024-01-16T10:54:23.602Z,1105.00
2024-01-16T10:55:23.627Z,1107.00
2024-01-16T10:56:23.676Z,1112.00
2024-01-16T10:57:23.719Z,1113.00
2024-01-16T10:58:23.726Z,1111.00
2024-01-16T10:59:23.823Z,1119.00
2024-01-16T11:00:23.765Z,1117.00
2024-01-16T11:01:23.801Z,1137.00
2024-01-16T11:02:23.886Z,1140.00
2024-01-16T11:03:24.883Z,1140.00
2024-01-16T11:04:23.944Z,1142.00
2024-01-16T11:05:26.476Z,1144.00
2024-01-16T11:06:23.881Z,1154.00
2024-01-16T11:07:23.863Z,1153.00
2024-01-16T11:08:23.928Z,1170.00
2024-01-16T11:09:23.884Z,1168.00
2024-01-16T11:10:23.863Z,1177.00
2024-01-16T11:11:24.042Z,1182.00
2024-01-16T11:12:23.851Z,1190.00
2024-01-16T11:13:23.854Z,1185.00
2024-01-16T11:14:24.630Z,1204.00
2024-01-16T11:15:23.865Z,1207.00
2024-01-16T11:16:23.873Z,1210.00
2024-01-16T11:17:23.933Z,1221.00
2024-01-16T11:18:24.082Z,1212.00
2024-01-16T11:19:38.224Z,1214.00
2024-01-16T11:20:38.786Z,1215.00
2024-01-16T11:21:25.015Z,1215.00
2024-01-16T11:22:24.019Z,1219.00
2024-01-16T11:23:23.955Z,1225.00
2024-01-16T11:24:23.880Z,1237.00
2024-01-16T11:25:23.905Z,1260.00
2024-01-16T11:26:24.858Z,1263.00
2024-01-16T11:27:23.927Z,1251.00
2024-01-16T11:28:23.935Z,1267.00
2024-01-16T11:29:23.919Z,1268.00
2024-01-16T11:30:23.981Z,1269.00
2024-01-16T11:31:23.912Z,1267.00
2024-01-16T11:32:30.147Z,1270.00
2024-01-16T11:33:25.082Z,1270.00
2024-01-16T11:34:24.082Z,1273.00
2024-01-16T11:35:24.012Z,1278.00
2024-01-16T11:36:23.946Z,1286.00
2024-01-16T11:37:23.950Z,1297.00
2024-01-16T11:38:23.941Z,1301.00
2024-01-16T11:39:23.940Z,1303.00
2024-01-16T11:40:23.947Z,1308.00
2024-01-16T11:41:32.958Z,1300.00
2024-01-16T11:42:25.051Z,1301.00
2024-01-16T11:43:24.054Z,1303.00
2024-01-16T11:44:24.753Z,1307.00
2024-01-16T11:45:24.000Z,1317.00
2024-01-16T11:46:24.050Z,1328.00
2024-01-16T11:47:24.244Z,1345.00
2024-01-16T11:48:24.259Z,1333.00
2024-01-16T11:49:24.140Z,1336.00
2024-01-16T11:50:24.334Z,1330.00
2024-01-16T11:51:24.163Z,1338.00
2024-01-16T11:52:24.132Z,1340.00
2024-01-16T11:53:24.197Z,1340.00
2024-01-16T11:54:24.183Z,1337.00
2024-01-16T11:55:24.208Z,1337.00
2024-01-16T11:56:34.271Z,1334.00
2024-01-16T11:57:25.303Z,1334.00
2024-01-16T11:58:24.228Z,1334.00
2024-01-16T11:59:24.249Z,1330.00
2024-01-16T12:00:24.238Z,1322.00
2024-01-16T12:01:24.326Z,1325.00
2024-01-16T12:02:24.256Z,1320.00
2024-01-16T12:03:31.811Z,1313.00
2024-01-16T12:04:25.240Z,1314.00
2024-01-16T12:05:24.393Z,1314.00
2024-01-16T12:06:24.343Z,1315.00
2024-01-16T12:07:24.425Z,1314.00
2024-01-16T12:08:24.265Z,1306.00
2024-01-16T12:09:24.276Z,1305.00
2024-01-16T12:10:24.289Z,1303.00
2024-01-16T12:11:30.274Z,1299.00
2024-01-16T12:12:25.324Z,1300.00
2024-01-16T12:13:24.264Z,1300.00
2024-01-16T12:14:24.307Z,1298.00
2024-01-16T12:15:24.283Z,1293.00
2024-01-16T12:16:24.262Z,1290.00
2024-01-16T12:17:24.386Z,1282.00
2024-01-16T12:18:33.925Z,1284.00
2024-01-16T12:19:25.393Z,1284.00
2024-01-16T12:20:24.526Z,1281.00
2024-01-16T12:21:24.303Z,1280.00
2024-01-16T12:22:24.292Z,1276.00
2024-01-16T12:23:24.365Z,1272.00
2024-01-16T12:24:24.312Z,1270.00